sensor_id;sensor_type;location;lat;lon;timestamp;P1;durP1;ratioP1;P2;durP2;ratioP2
3443;SDS011;1736;52.068;6.968;2023-10-09T00:38:37;30.53;;;17.20;;
3443;SDS011;1736;52.068;6.968;2023-10-09T00:41:09;38.13;;;19.47;;
3443;SDS011;1736;52.068;6.968;2023-10-09T00:43:37;37.03;;;19.70;;
3443;SDS011;1736;52.068;6.968;2023-10-09T00:46:08;35.23;;;18.90;;
3443;SDS011;1736;52.068;6.968;2023-10-09T00:48:49;31.67;;;18.47;;
3443;SDS011;1736;52.068;6.968;2023-10-09T00:51:17;37.17;;;17.73;;
3443;SDS011;1736;52.068;6.968;2023-10-09T00:53:49;35.93;;;18.93;;
3443;SDS011;1736;52.068;6.968;2023-10-09T00:56:17;33.50;;;17.07;;
3443;SDS011;1736;52.068;6.968;2023-10-09T00:58:54;38.43;;;20.23;;
3443;SDS011;1736;52.068;6.968;2023-10-09T01:01:25;33.53;;;18.07;;
3443;SDS011;1736;52.068;6.968;2023-10-09T01:03:59;35.00;;;19.50;;
3443;SDS011;1736;52.068;6.968;2023-10-09T01:06:31;37.57;;;19.20;;
3443;SDS011;1736;52.068;6.968;2023-10-09T01:09:00;40.90;;;19.10;;
3443;SDS011;1736;52.068;6.968;2023-10-09T01:11:34;32.17;;;19.70;;
3443;SDS011;1736;52.068;6.968;2023-10-09T01:14:12;35.20;;;18.73;;
3443;SDS011;1736;52.068;6.968;2023-10-09T01:16:38;32.23;;;19.93;;
3443;SDS011;1736;52.068;6.968;2023-10-09T01:19:07;46.97;;;19.03;;
3443;SDS011;1736;52.068;6.968;2023-10-09T01:21:45;33.73;;;17.90;;
3443;SDS011;1736;52.068;6.968;2023-10-09T01:24:14;35.23;;;17.63;;
3443;SDS011;1736;52.068;6.968;2023-10-09T01:26:42;31.50;;;17.93;;
3443;SDS011;1736;52.068;6.968;2023-10-09T01:29:12;36.20;;;18.20;;
3443;SDS011;1736;52.068;6.968;2023-10-09T01:31:44;37.23;;;18.97;;
3443;SDS011;1736;52.068;6.968;2023-10-09T01:34:17;32.50;;;18.00;;
3443;SDS011;1736;52.068;6.968;2023-10-09T01:36:49;32.20;;;18.97;;
3443;SDS011;1736;52.068;6.968;2023-10-09T01:39:20;35.60;;;19.97;;
3443;SDS011;1736;52.068;6.968;2023-10-09T01:41:52;30.47;;;18.87;;
3443;SDS011;1736;52.068;6.968;2023-10-09T01:44:27;31.40;;;18.60;;
3443;SDS011;1736;52.068;6.968;2023-10-09T01:46:55;33.37;;;18.00;;
3443;SDS011;1736;52.068;6.968;2023-10-09T01:49:23;29.77;;;18.00;;
3443;SDS011;1736;52.068;6.968;2023-10-09T01:51:56;36.67;;;19.60;;
3443;SDS011;1736;52.068;6.968;2023-10-09T01:54:28;40.63;;;19.80;;
3443;SDS011;1736;52.068;6.968;2023-10-09T01:57:01;36.07;;;19.67;;
3443;SDS011;1736;52.068;6.968;2023-10-09T01:59:31;32.00;;;18.97;;
3443;SDS011;1736;52.068;6.968;2023-10-09T02:01:58;39.67;;;18.93;;
3443;SDS011;1736;52.068;6.968;2023-10-09T02:04:35;35.77;;;19.10;;
3443;SDS011;1736;52.068;6.968;2023-10-09T02:07:01;37.57;;;18.83;;
3443;SDS011;1736;52.068;6.968;2023-10-09T02:09:33;36.03;;;20.17;;
3443;SDS011;1736;52.068;6.968;2023-10-09T02:12:00;41.53;;;20.20;;
3443;SDS011;1736;52.068;6.968;2023-10-09T02:14:27;33.80;;;17.33;;
3443;SDS011;1736;52.068;6.968;2023-10-09T02:16:54;29.87;;;17.90;;
3443;SDS011;1736;52.068;6.968;2023-10-09T02:19:33;34.70;;;18.70;;
3443;SDS011;1736;52.068;6.968;2023-10-09T02:22:00;37.77;;;18.53;;
3443;SDS011;1736;52.068;6.968;2023-10-09T02:24:39;33.90;;;17.83;;
3443;SDS011;1736;52.068;6.968;2023-10-09T02:27:16;36.17;;;19.37;;
3443;SDS011;1736;52.068;6.968;2023-10-09T02:30:05;34.43;;;19.27;;
3443;SDS011;1736;52.068;6.968;2023-10-09T02:32:41;37.90;;;19.23;;
3443;SDS011;1736;52.068;6.968;2023-10-09T02:35:09;32.43;;;18.40;;
3443;SDS011;1736;52.068;6.968;2023-10-09T02:37:44;34.40;;;19.37;;
3443;SDS011;1736;52.068;6.968;2023-10-09T02:40:13;33.80;;;19.20;;
3443;SDS011;1736;52.068;6.968;2023-10-09T02:42:48;35.87;;;19.87;;
3443;SDS011;1736;52.068;6.968;2023-10-09T02:45:15;33.87;;;19.27;;
3443;SDS011;1736;52.068;6.968;2023-10-09T02:47:43;34.57;;;19.27;;
3443;SDS011;1736;52.068;6.968;2023-10-09T02:50:13;35.10;;;18.93;;
3443;SDS011;1736;52.068;6.968;2023-10-09T02:52:46;33.10;;;18.40;;
3443;SDS011;1736;52.068;6.968;2023-10-09T02:55:19;36.97;;;19.40;;
3443;SDS011;1736;52.068;6.968;2023-10-09T02:57:51;40.20;;;19.37;;
3443;SDS011;1736;52.068;6.968;2023-10-09T03:00:29;35.80;;;20.23;;
3443;SDS011;1736;52.068;6.968;2023-10-09T03:02:57;32.43;;;18.30;;
3443;SDS011;1736;52.068;6.968;2023-10-09T03:05:24;31.57;;;18.47;;
3443;SDS011;1736;52.068;6.968;2023-10-09T03:07:52;34.30;;;19.13;;
3443;SDS011;1736;52.068;6.968;2023-10-09T03:10:21;38.60;;;19.70;;
3443;SDS011;1736;52.068;6.968;2023-10-09T03:12:48;36.20;;;19.03;;
3443;SDS011;1736;52.068;6.968;2023-10-09T03:15:18;33.00;;;18.47;;
3443;SDS011;1736;52.068;6.968;2023-10-09T03:17:45;34.27;;;19.97;;
3443;SDS011;1736;52.068;6.968;2023-10-09T03:20:12;37.77;;;19.23;;
3443;SDS011;1736;52.068;6.968;2023-10-09T03:22:40;37.30;;;19.40;;
3443;SDS011;1736;52.068;6.968;2023-10-09T03:25:08;31.53;;;18.43;;
3443;SDS011;1736;52.068;6.968;2023-10-09T03:27:40;33.93;;;19.50;;
3443;SDS011;1736;52.068;6.968;2023-10-09T03:30:10;38.17;;;19.50;;
3443;SDS011;1736;52.068;6.968;2023-10-09T03:32:41;37.10;;;20.00;;
3443;SDS011;1736;52.068;6.968;2023-10-09T03:35:08;31.50;;;18.60;;
3443;SDS011;1736;52.068;6.968;2023-10-09T03:37:39;36.17;;;20.90;;
3443;SDS011;1736;52.068;6.968;2023-10-09T03:40:06;34.90;;;20.77;;
3443;SDS011;1736;52.068;6.968;2023-10-09T03:42:33;34.40;;;20.60;;
3443;SDS011;1736;52.068;6.968;2023-10-09T03:45:03;34.60;;;20.77;;
3443;SDS011;1736;52.068;6.968;2023-10-09T03:47:37;43.17;;;21.57;;
3443;SDS011;1736;52.068;6.968;2023-10-09T03:50:06;33.70;;;20.03;;
3443;SDS011;1736;52.068;6.968;2023-10-09T03:52:51;37.23;;;19.90;;
3443;SDS011;1736;52.068;6.968;2023-10-09T03:55:18;34.83;;;20.70;;
3443;SDS011;1736;52.068;6.968;2023-10-09T03:57:47;34.23;;;21.03;;
3443;SDS011;1736;52.068;6.968;2023-10-09T04:00:15;38.33;;;20.90;;
3443;SDS011;1736;52.068;6.968;2023-10-09T04:02:52;35.87;;;21.07;;
3443;SDS011;1736;52.068;6.968;2023-10-09T04:05:19;40.70;;;21.43;;
3443;SDS011;1736;52.068;6.968;2023-10-09T04:07:46;43.13;;;20.80;;
3443;SDS011;1736;52.068;6.968;2023-10-09T04:10:14;39.60;;;22.27;;
3443;SDS011;1736;52.068;6.968;2023-10-09T04:12:57;41.37;;;21.90;;
3443;SDS011;1736;52.068;6.968;2023-10-09T04:15:26;37.27;;;20.70;;
3443;SDS011;1736;52.068;6.968;2023-10-09T04:17:56;35.57;;;18.80;;
3443;SDS011;1736;52.068;6.968;2023-10-09T04:20:22;33.83;;;19.80;;
3443;SDS011;1736;52.068;6.968;2023-10-09T04:23:32;36.33;;;20.17;;
3443;SDS011;1736;52.068;6.968;2023-10-09T04:26:22;42.77;;;20.90;;
3443;SDS011;1736;52.068;6.968;2023-10-09T04:28:50;35.10;;;20.60;;
3443;SDS011;1736;52.068;6.968;2023-10-09T04:31:22;46.40;;;21.53;;
3443;SDS011;1736;52.068;6.968;2023-10-09T04:33:56;36.63;;;20.70;;
3443;SDS011;1736;52.068;6.968;2023-10-09T04:36:47;41.43;;;22.43;;
3443;SDS011;1736;52.068;6.968;2023-10-09T04:39:14;37.33;;;21.53;;
3443;SDS011;1736;52.068;6.968;2023-10-09T04:42:00;39.93;;;21.67;;
3443;SDS011;1736;52.068;6.968;2023-10-09T04:44:40;42.00;;;21.80;;
3443;SDS011;1736;52.068;6.968;2023-10-09T04:47:26;41.47;;;19.90;;
3443;SDS011;1736;52.068;6.968;2023-10-09T04:50:01;38.63;;;22.70;;
3443;SDS011;1736;52.068;6.968;2023-10-09T04:52:36;37.90;;;22.00;;
3443;SDS011;1736;52.068;6.968;2023-10-09T04:55:17;34.77;;;22.00;;
3443;SDS011;1736;52.068;6.968;2023-10-09T04:57:45;39.97;;;22.90;;
3443;SDS011;1736;52.068;6.968;2023-10-09T05:00:26;36.93;;;20.50;;
3443;SDS011;1736;52.068;6.968;2023-10-09T05:03:13;47.93;;;22.93;;
3443;SDS011;1736;52.068;6.968;2023-10-09T05:05:50;39.57;;;22.60;;
3443;SDS011;1736;52.068;6.968;2023-10-09T05:08:25;41.20;;;23.43;;
3443;SDS011;1736;52.068;6.968;2023-10-09T05:10:55;42.40;;;23.87;;
3443;SDS011;1736;52.068;6.968;2023-10-09T05:13:31;40.53;;;23.30;;
3443;SDS011;1736;52.068;6.968;2023-10-09T05:16:09;61.37;;;25.30;;
3443;SDS011;1736;52.068;6.968;2023-10-09T05:18:41;43.30;;;24.40;;
3443;SDS011;1736;52.068;6.968;2023-10-09T05:21:10;39.07;;;23.43;;
3443;SDS011;1736;52.068;6.968;2023-10-09T05:23:50;43.20;;;24.80;;
3443;SDS011;1736;52.068;6.968;2023-10-09T05:26:39;45.07;;;24.43;;
3443;SDS011;1736;52.068;6.968;2023-10-09T05:29:16;40.00;;;24.87;;
3443;SDS011;1736;52.068;6.968;2023-10-09T05:31:59;39.90;;;24.57;;
3443;SDS011;1736;52.068;6.968;2023-10-09T05:34:41;44.97;;;26.13;;
3443;SDS011;1736;52.068;6.968;2023-10-09T05:37:22;46.80;;;25.93;;
3443;SDS011;1736;52.068;6.968;2023-10-09T05:39:51;46.60;;;26.27;;
3443;SDS011;1736;52.068;6.968;2023-10-09T05:42:44;45.70;;;26.27;;
3443;SDS011;1736;52.068;6.968;2023-10-09T05:45:12;47.10;;;27.27;;
3443;SDS011;1736;52.068;6.968;2023-10-09T05:47:56;49.17;;;26.60;;
3443;SDS011;1736;52.068;6.968;2023-10-09T05:50:32;54.10;;;27.03;;
3443;SDS011;1736;52.068;6.968;2023-10-09T05:53:03;44.93;;;26.03;;
3443;SDS011;1736;52.068;6.968;2023-10-09T05:55:35;48.07;;;25.87;;
3443;SDS011;1736;52.068;6.968;2023-10-09T05:58:14;41.77;;;25.23;;
3443;SDS011;1736;52.068;6.968;2023-10-09T06:00:57;47.27;;;25.20;;
3443;SDS011;1736;52.068;6.968;2023-10-09T06:03:41;49.57;;;26.27;;
3443;SDS011;1736;52.068;6.968;2023-10-09T06:06:20;48.50;;;25.90;;
3443;SDS011;1736;52.068;6.968;2023-10-09T06:08:59;46.23;;;27.20;;
3443;SDS011;1736;52.068;6.968;2023-10-09T06:11:45;45.63;;;27.70;;
3443;SDS011;1736;52.068;6.968;2023-10-09T06:14:15;53.50;;;29.33;;
3443;SDS011;1736;52.068;6.968;2023-10-09T06:16:50;43.00;;;26.60;;
3443;SDS011;1736;52.068;6.968;2023-10-09T06:19:26;45.03;;;27.33;;
3443;SDS011;1736;52.068;6.968;2023-10-09T06:21:53;46.10;;;27.87;;
3443;SDS011;1736;52.068;6.968;2023-10-09T06:25:02;46.00;;;27.43;;
3443;SDS011;1736;52.068;6.968;2023-10-09T06:27:34;47.90;;;27.33;;
3443;SDS011;1736;52.068;6.968;2023-10-09T06:30:22;47.17;;;28.60;;
3443;SDS011;1736;52.068;6.968;2023-10-09T06:32:53;50.53;;;29.70;;
3443;SDS011;1736;52.068;6.968;2023-10-09T06:35:44;48.57;;;29.03;;
3443;SDS011;1736;52.068;6.968;2023-10-09T06:38:20;47.70;;;28.33;;
3443;SDS011;1736;52.068;6.968;2023-10-09T06:40:47;44.90;;;28.43;;
3443;SDS011;1736;52.068;6.968;2023-10-09T06:43:32;51.80;;;28.97;;
3443;SDS011;1736;52.068;6.968;2023-10-09T06:46:14;51.83;;;29.27;;
3443;SDS011;1736;52.068;6.968;2023-10-09T06:49:09;47.03;;;29.73;;
3443;SDS011;1736;52.068;6.968;2023-10-09T06:55:16;49.10;;;29.17;;
3443;SDS011;1736;52.068;6.968;2023-10-09T06:57:45;48.87;;;28.30;;
3443;SDS011;1736;52.068;6.968;2023-10-09T07:00:14;43.93;;;26.97;;
3443;SDS011;1736;52.068;6.968;2023-10-09T07:02:58;45.17;;;26.97;;
3443;SDS011;1736;52.068;6.968;2023-10-09T07:05:36;43.90;;;26.87;;
3443;SDS011;1736;52.068;6.968;2023-10-09T07:08:22;45.80;;;27.70;;
3443;SDS011;1736;52.068;6.968;2023-10-09T07:10:58;48.03;;;28.23;;
3443;SDS011;1736;52.068;6.968;2023-10-09T07:13:46;47.97;;;28.60;;
3443;SDS011;1736;52.068;6.968;2023-10-09T07:16:20;44.33;;;26.90;;
3443;SDS011;1736;52.068;6.968;2023-10-09T07:18:49;47.30;;;26.70;;
3443;SDS011;1736;52.068;6.968;2023-10-09T07:21:19;43.77;;;24.00;;
3443;SDS011;1736;52.068;6.968;2023-10-09T07:23:53;45.07;;;24.17;;
3443;SDS011;1736;52.068;6.968;2023-10-09T07:26:25;42.07;;;25.00;;
3443;SDS011;1736;52.068;6.968;2023-10-09T07:29:02;44.87;;;27.87;;
3443;SDS011;1736;52.068;6.968;2023-10-09T07:31:41;44.20;;;25.47;;
3443;SDS011;1736;52.068;6.968;2023-10-09T07:34:10;39.10;;;24.30;;
3443;SDS011;1736;52.068;6.968;2023-10-09T07:37:03;39.63;;;23.07;;
3443;SDS011;1736;52.068;6.968;2023-10-09T07:39:30;37.53;;;23.50;;
3443;SDS011;1736;52.068;6.968;2023-10-09T07:42:01;42.27;;;22.20;;
3443;SDS011;1736;52.068;6.968;2023-10-09T07:44:40;45.07;;;23.30;;
3443;SDS011;1736;52.068;6.968;2023-10-09T07:47:18;50.10;;;23.77;;
3443;SDS011;1736;52.068;6.968;2023-10-09T07:49:48;38.13;;;22.67;;
3443;SDS011;1736;52.068;6.968;2023-10-09T07:52:18;40.57;;;23.60;;
3443;SDS011;1736;52.068;6.968;2023-10-09T07:54:47;39.87;;;22.47;;
3443;SDS011;1736;52.068;6.968;2023-10-09T07:57:28;37.97;;;22.60;;
3443;SDS011;1736;52.068;6.968;2023-10-09T08:00:04;36.70;;;23.50;;
3443;SDS011;1736;52.068;6.968;2023-10-09T08:02:58;38.63;;;23.67;;
3443;SDS011;1736;52.068;6.968;2023-10-09T08:05:27;45.83;;;23.70;;
3443;SDS011;1736;52.068;6.968;2023-10-09T08:07:58;38.07;;;21.30;;
3443;SDS011;1736;52.068;6.968;2023-10-09T08:10:44;36.93;;;23.00;;
3443;SDS011;1736;52.068;6.968;2023-10-09T08:13:25;39.13;;;22.50;;
3443;SDS011;1736;52.068;6.968;2023-10-09T08:16:09;38.13;;;21.93;;
3443;SDS011;1736;52.068;6.968;2023-10-09T08:18:45;38.23;;;21.97;;
3443;SDS011;1736;52.068;6.968;2023-10-09T08:21:11;41.60;;;22.40;;
3443;SDS011;1736;52.068;6.968;2023-10-09T08:24:06;41.53;;;21.93;;
3443;SDS011;1736;52.068;6.968;2023-10-09T08:26:52;42.20;;;23.10;;
3443;SDS011;1736;52.068;6.968;2023-10-09T08:29:40;34.37;;;21.30;;
3443;SDS011;1736;52.068;6.968;2023-10-09T08:32:12;42.53;;;22.80;;
3443;SDS011;1736;52.068;6.968;2023-10-09T08:35:04;37.77;;;21.43;;
3443;SDS011;1736;52.068;6.968;2023-10-09T08:37:31;37.07;;;22.10;;
3443;SDS011;1736;52.068;6.968;2023-10-09T08:40:03;38.87;;;22.07;;
3443;SDS011;1736;52.068;6.968;2023-10-09T08:42:32;33.93;;;21.47;;
3443;SDS011;1736;52.068;6.968;2023-10-09T08:45:01;34.10;;;21.10;;
3443;SDS011;1736;52.068;6.968;2023-10-09T08:47:30;37.33;;;22.00;;
3443;SDS011;1736;52.068;6.968;2023-10-09T08:49:58;35.27;;;21.60;;
3443;SDS011;1736;52.068;6.968;2023-10-09T08:52:26;34.83;;;20.67;;
3443;SDS011;1736;52.068;6.968;2023-10-09T08:54:53;36.30;;;20.80;;
3443;SDS011;1736;52.068;6.968;2023-10-09T08:57:19;40.00;;;21.10;;
3443;SDS011;1736;52.068;6.968;2023-10-09T08:59:47;33.53;;;20.33;;
3443;SDS011;1736;52.068;6.968;2023-10-09T09:02:15;34.03;;;20.90;;
3443;SDS011;1736;52.068;6.968;2023-10-09T09:04:42;36.50;;;21.40;;
3443;SDS011;1736;52.068;6.968;2023-10-09T09:07:23;32.57;;;20.73;;
3443;SDS011;1736;52.068;6.968;2023-10-09T09:09:56;34.00;;;20.93;;
3443;SDS011;1736;52.068;6.968;2023-10-09T09:12:29;32.83;;;21.13;;
3443;SDS011;1736;52.068;6.968;2023-10-09T09:15:02;32.77;;;20.80;;
3443;SDS011;1736;52.068;6.968;2023-10-09T09:17:33;33.83;;;22.37;;
3443;SDS011;1736;52.068;6.968;2023-10-09T09:20:09;37.07;;;22.30;;
3443;SDS011;1736;52.068;6.968;2023-10-09T09:22:51;39.77;;;22.10;;
3443;SDS011;1736;52.068;6.968;2023-10-09T09:25:19;39.00;;;20.73;;
3443;SDS011;1736;52.068;6.968;2023-10-09T09:27:49;29.30;;;20.07;;
3443;SDS011;1736;52.068;6.968;2023-10-09T09:30:24;31.83;;;19.77;;
3443;SDS011;1736;52.068;6.968;2023-10-09T09:32:58;26.83;;;18.57;;
3443;SDS011;1736;52.068;6.968;2023-10-09T09:35:58;29.77;;;19.43;;
3443;SDS011;1736;52.068;6.968;2023-10-09T09:38:28;29.57;;;18.93;;
3443;SDS011;1736;52.068;6.968;2023-10-09T09:41:00;31.13;;;18.90;;
3443;SDS011;1736;52.068;6.968;2023-10-09T09:43:32;30.40;;;19.20;;
3443;SDS011;1736;52.068;6.968;2023-10-09T09:46:01;33.47;;;16.70;;
3443;SDS011;1736;52.068;6.968;2023-10-09T09:48:34;27.83;;;17.93;;
3443;SDS011;1736;52.068;6.968;2023-10-09T09:51:09;29.30;;;18.03;;
3443;SDS011;1736;52.068;6.968;2023-10-09T09:53:38;32.17;;;19.20;;
3443;SDS011;1736;52.068;6.968;2023-10-09T09:56:05;32.27;;;17.07;;
3443;SDS011;1736;52.068;6.968;2023-10-09T09:58:38;28.03;;;17.40;;
3443;SDS011;1736;52.068;6.968;2023-10-09T10:01:08;34.20;;;18.70;;
3443;SDS011;1736;52.068;6.968;2023-10-09T10:03:44;30.20;;;17.40;;
3443;SDS011;1736;52.068;6.968;2023-10-09T10:06:14;36.20;;;18.47;;
3443;SDS011;1736;52.068;6.968;2023-10-09T10:08:44;26.20;;;17.20;;
3443;SDS011;1736;52.068;6.968;2023-10-09T10:14:10;30.33;;;18.07;;
3443;SDS011;1736;52.068;6.968;2023-10-09T10:22:51;30.40;;;17.63;;
3443;SDS011;1736;52.068;6.968;2023-10-09T10:25:37;36.07;;;19.20;;
3443;SDS011;1736;52.068;6.968;2023-10-09T10:28:15;28.43;;;17.60;;
3443;SDS011;1736;52.068;6.968;2023-10-09T10:30:53;33.57;;;19.30;;
3443;SDS011;1736;52.068;6.968;2023-10-09T10:33:20;27.53;;;18.40;;
3443;SDS011;1736;52.068;6.968;2023-10-09T10:35:51;33.20;;;18.73;;
3443;SDS011;1736;52.068;6.968;2023-10-09T10:38:29;29.77;;;18.80;;
3443;SDS011;1736;52.068;6.968;2023-10-09T10:41:08;29.43;;;18.07;;
3443;SDS011;1736;52.068;6.968;2023-10-09T10:43:37;30.90;;;17.83;;
3443;SDS011;1736;52.068;6.968;2023-10-09T10:46:19;33.97;;;19.10;;
3443;SDS011;1736;52.068;6.968;2023-10-09T10:48:55;33.03;;;17.20;;
3443;SDS011;1736;52.068;6.968;2023-10-09T10:51:26;30.97;;;17.90;;
3443;SDS011;1736;52.068;6.968;2023-10-09T10:54:04;32.33;;;17.10;;
3443;SDS011;1736;52.068;6.968;2023-10-09T10:56:49;26.73;;;16.60;;
3443;SDS011;1736;52.068;6.968;2023-10-09T10:59:16;26.80;;;15.37;;
3443;SDS011;1736;52.068;6.968;2023-10-09T11:01:50;33.10;;;16.40;;
3443;SDS011;1736;52.068;6.968;2023-10-09T11:04:18;23.40;;;15.83;;
3443;SDS011;1736;52.068;6.968;2023-10-09T11:07:05;25.03;;;16.03;;
3443;SDS011;1736;52.068;6.968;2023-10-09T11:09:44;31.33;;;16.70;;
3443;SDS011;1736;52.068;6.968;2023-10-09T11:12:25;29.90;;;16.40;;
3443;SDS011;1736;52.068;6.968;2023-10-09T11:15:03;27.10;;;16.60;;
3443;SDS011;1736;52.068;6.968;2023-10-09T11:17:34;31.73;;;17.40;;
3443;SDS011;1736;52.068;6.968;2023-10-09T11:20:04;28.47;;;16.43;;
3443;SDS011;1736;52.068;6.968;2023-10-09T11:22:49;23.33;;;14.87;;
3443;SDS011;1736;52.068;6.968;2023-10-09T11:25:40;23.27;;;15.10;;
3443;SDS011;1736;52.068;6.968;2023-10-09T11:28:16;23.03;;;14.80;;
3443;SDS011;1736;52.068;6.968;2023-10-09T11:30:54;30.07;;;15.83;;
3443;SDS011;1736;52.068;6.968;2023-10-09T11:33:20;23.37;;;13.90;;
3443;SDS011;1736;52.068;6.968;2023-10-09T11:35:54;27.13;;;14.47;;
3443;SDS011;1736;52.068;6.968;2023-10-09T11:38:23;33.00;;;15.03;;
3443;SDS011;1736;52.068;6.968;2023-10-09T11:40:51;27.20;;;13.70;;
3443;SDS011;1736;52.068;6.968;2023-10-09T11:43:44;26.90;;;14.23;;
3443;SDS011;1736;52.068;6.968;2023-10-09T11:46:17;26.60;;;14.10;;
3443;SDS011;1736;52.068;6.968;2023-10-09T11:49:05;26.10;;;15.77;;
3443;SDS011;1736;52.068;6.968;2023-10-09T11:52:05;23.30;;;13.07;;
3443;SDS011;1736;52.068;6.968;2023-10-09T11:54:51;25.43;;;14.00;;
3443;SDS011;1736;52.068;6.968;2023-10-09T11:57:21;22.43;;;13.80;;
3443;SDS011;1736;52.068;6.968;2023-10-09T11:59:55;30.03;;;13.67;;
3443;SDS011;1736;52.068;6.968;2023-10-09T12:02:22;27.90;;;13.80;;
3443;SDS011;1736;52.068;6.968;2023-10-09T12:04:49;20.60;;;13.30;;
3443;SDS011;1736;52.068;6.968;2023-10-09T12:07:16;28.30;;;14.17;;
3443;SDS011;1736;52.068;6.968;2023-10-09T12:09:46;22.60;;;13.23;;
3443;SDS011;1736;52.068;6.968;2023-10-09T12:12:23;32.00;;;13.07;;
3443;SDS011;1736;52.068;6.968;2023-10-09T12:14:52;22.40;;;12.97;;
3443;SDS011;1736;52.068;6.968;2023-10-09T12:17:19;28.73;;;13.87;;
3443;SDS011;1736;52.068;6.968;2023-10-09T12:19:49;26.27;;;13.50;;
3443;SDS011;1736;52.068;6.968;2023-10-09T12:22:16;21.30;;;12.83;;
3443;SDS011;1736;52.068;6.968;2023-10-09T12:24:45;22.97;;;12.43;;
3443;SDS011;1736;52.068;6.968;2023-10-09T12:27:12;22.13;;;12.20;;
3443;SDS011;1736;52.068;6.968;2023-10-09T12:29:40;22.80;;;12.60;;
3443;SDS011;1736;52.068;6.968;2023-10-09T12:32:09;30.00;;;12.60;;
3443;SDS011;1736;52.068;6.968;2023-10-09T12:34:36;23.60;;;12.80;;
3443;SDS011;1736;52.068;6.968;2023-10-09T12:37:03;25.20;;;12.87;;
3443;SDS011;1736;52.068;6.968;2023-10-09T12:39:31;21.40;;;12.00;;
3443;SDS011;1736;52.068;6.968;2023-10-09T12:41:59;17.70;;;12.10;;
3443;SDS011;1736;52.068;6.968;2023-10-09T12:44:31;20.13;;;12.17;;
3443;SDS011;1736;52.068;6.968;2023-10-09T12:47:00;22.67;;;12.50;;
3443;SDS011;1736;52.068;6.968;2023-10-09T12:49:29;18.60;;;12.40;;
3443;SDS011;1736;52.068;6.968;2023-10-09T12:51:56;21.70;;;11.10;;
3443;SDS011;1736;52.068;6.968;2023-10-09T12:54:24;19.13;;;11.50;;
3443;SDS011;1736;52.068;6.968;2023-10-09T12:56:53;20.60;;;11.80;;
3443;SDS011;1736;52.068;6.968;2023-10-09T12:59:20;20.43;;;10.17;;
3443;SDS011;1736;52.068;6.968;2023-10-09T13:01:47;21.47;;;11.73;;
3443;SDS011;1736;52.068;6.968;2023-10-09T13:04:18;21.03;;;12.20;;
3443;SDS011;1736;52.068;6.968;2023-10-09T13:06:47;23.20;;;11.33;;
3443;SDS011;1736;52.068;6.968;2023-10-09T13:09:19;24.33;;;10.90;;
3443;SDS011;1736;52.068;6.968;2023-10-09T13:11:50;23.90;;;11.77;;
3443;SDS011;1736;52.068;6.968;2023-10-09T13:14:17;22.50;;;11.57;;
3443;SDS011;1736;52.068;6.968;2023-10-09T13:16:46;19.03;;;12.03;;
3443;SDS011;1736;52.068;6.968;2023-10-09T13:19:15;24.43;;;11.67;;
3443;SDS011;1736;52.068;6.968;2023-10-09T13:21:43;22.37;;;11.77;;
3443;SDS011;1736;52.068;6.968;2023-10-09T13:24:11;17.60;;;10.63;;
3443;SDS011;1736;52.068;6.968;2023-10-09T13:26:40;17.67;;;10.50;;
3443;SDS011;1736;52.068;6.968;2023-10-09T13:29:10;16.50;;;11.10;;
3443;SDS011;1736;52.068;6.968;2023-10-09T13:31:37;22.30;;;12.07;;
3443;SDS011;1736;52.068;6.968;2023-10-09T13:34:05;20.67;;;11.47;;
3443;SDS011;1736;52.068;6.968;2023-10-09T13:36:35;20.77;;;11.30;;
3443;SDS011;1736;52.068;6.968;2023-10-09T13:39:04;20.43;;;11.07;;
3443;SDS011;1736;52.068;6.968;2023-10-09T13:42:09;24.50;;;11.97;;
3443;SDS011;1736;52.068;6.968;2023-10-09T13:44:36;18.20;;;10.83;;
3443;SDS011;1736;52.068;6.968;2023-10-09T13:47:06;18.13;;;9.70;;
3443;SDS011;1736;52.068;6.968;2023-10-09T13:49:44;23.63;;;11.40;;
3443;SDS011;1736;52.068;6.968;2023-10-09T13:52:10;16.03;;;9.60;;
3443;SDS011;1736;52.068;6.968;2023-10-09T13:54:43;14.37;;;9.30;;
3443;SDS011;1736;52.068;6.968;2023-10-09T13:57:14;17.33;;;9.30;;
3443;SDS011;1736;52.068;6.968;2023-10-09T13:59:41;21.20;;;10.30;;
3443;SDS011;1736;52.068;6.968;2023-10-09T14:02:14;15.93;;;8.73;;
3443;SDS011;1736;52.068;6.968;2023-10-09T14:04:43;21.27;;;9.33;;
3443;SDS011;1736;52.068;6.968;2023-10-09T14:07:10;14.00;;;8.10;;
3443;SDS011;1736;52.068;6.968;2023-10-09T14:09:41;16.37;;;8.53;;
3443;SDS011;1736;52.068;6.968;2023-10-09T14:12:21;14.60;;;7.80;;
3443;SDS011;1736;52.068;6.968;2023-10-09T14:14:49;14.77;;;7.70;;
3443;SDS011;1736;52.068;6.968;2023-10-09T14:17:19;12.67;;;7.70;;
3443;SDS011;1736;52.068;6.968;2023-10-09T14:19:48;16.13;;;7.03;;
3443;SDS011;1736;52.068;6.968;2023-10-09T14:22:16;12.20;;;7.00;;
3443;SDS011;1736;52.068;6.968;2023-10-09T14:24:43;11.10;;;6.30;;
3443;SDS011;1736;52.068;6.968;2023-10-09T14:27:10;10.87;;;6.40;;
3443;SDS011;1736;52.068;6.968;2023-10-09T14:29:43;13.60;;;6.03;;
3443;SDS011;1736;52.068;6.968;2023-10-09T14:32:10;12.40;;;7.10;;
3443;SDS011;1736;52.068;6.968;2023-10-09T14:34:38;13.30;;;8.10;;
3443;SDS011;1736;52.068;6.968;2023-10-09T14:37:08;16.33;;;7.87;;
3443;SDS011;1736;52.068;6.968;2023-10-09T14:39:37;15.90;;;7.53;;
3443;SDS011;1736;52.068;6.968;2023-10-09T14:42:03;15.00;;;7.40;;
3443;SDS011;1736;52.068;6.968;2023-10-09T14:44:34;15.23;;;8.20;;
3443;SDS011;1736;52.068;6.968;2023-10-09T14:47:04;16.17;;;7.20;;
3443;SDS011;1736;52.068;6.968;2023-10-09T14:49:31;13.77;;;7.03;;
3443;SDS011;1736;52.068;6.968;2023-10-09T14:52:00;18.80;;;8.10;;
3443;SDS011;1736;52.068;6.968;2023-10-09T14:54:26;13.23;;;7.50;;
3443;SDS011;1736;52.068;6.968;2023-10-09T14:56:53;13.30;;;6.57;;
3443;SDS011;1736;52.068;6.968;2023-10-09T14:59:19;13.33;;;7.40;;
3443;SDS011;1736;52.068;6.968;2023-10-09T15:01:47;16.40;;;8.50;;
3443;SDS011;1736;52.068;6.968;2023-10-09T15:04:16;11.53;;;7.00;;
3443;SDS011;1736;52.068;6.968;2023-10-09T15:06:42;9.10;;;6.17;;
3443;SDS011;1736;52.068;6.968;2023-10-09T15:09:09;9.47;;;5.73;;
3443;SDS011;1736;52.068;6.968;2023-10-09T15:11:46;18.23;;;6.47;;
3443;SDS011;1736;52.068;6.968;2023-10-09T15:14:13;9.30;;;5.30;;
3443;SDS011;1736;52.068;6.968;2023-10-09T15:16:39;8.27;;;5.50;;
3443;SDS011;1736;52.068;6.968;2023-10-09T15:19:08;13.53;;;5.63;;
3443;SDS011;1736;52.068;6.968;2023-10-09T15:21:36;9.50;;;5.63;;
3443;SDS011;1736;52.068;6.968;2023-10-09T15:24:09;9.80;;;5.70;;
3443;SDS011;1736;52.068;6.968;2023-10-09T15:26:37;12.90;;;5.80;;
3443;SDS011;1736;52.068;6.968;2023-10-09T15:29:05;9.80;;;5.80;;
3443;SDS011;1736;52.068;6.968;2023-10-09T15:31:31;16.23;;;6.00;;
3443;SDS011;1736;52.068;6.968;2023-10-09T16:28:15;16.67;;;5.90;;
3443;SDS011;1736;52.068;6.968;2023-10-09T16:30:41;13.17;;;6.90;;
3443;SDS011;1736;52.068;6.968;2023-10-09T16:33:08;9.27;;;5.93;;
3443;SDS011;1736;52.068;6.968;2023-10-09T16:35:35;11.30;;;6.27;;
3443;SDS011;1736;52.068;6.968;2023-10-09T16:38:02;15.13;;;7.20;;
3443;SDS011;1736;52.068;6.968;2023-10-09T16:40:30;14.30;;;6.67;;
3443;SDS011;1736;52.068;6.968;2023-10-09T16:42:57;10.73;;;6.17;;
3443;SDS011;1736;52.068;6.968;2023-10-09T16:45:27;13.70;;;6.60;;
3443;SDS011;1736;52.068;6.968;2023-10-09T16:47:53;14.50;;;7.07;;
3443;SDS011;1736;52.068;6.968;2023-10-09T16:50:24;11.90;;;6.97;;
3443;SDS011;1736;52.068;6.968;2023-10-09T16:52:53;15.20;;;7.20;;
3443;SDS011;1736;52.068;6.968;2023-10-09T16:55:19;12.37;;;7.03;;
3443;SDS011;1736;52.068;6.968;2023-10-09T16:57:47;13.50;;;6.80;;
3443;SDS011;1736;52.068;6.968;2023-10-09T17:00:14;13.70;;;6.60;;
3443;SDS011;1736;52.068;6.968;2023-10-09T17:02:45;13.73;;;7.20;;
3443;SDS011;1736;52.068;6.968;2023-10-09T17:05:12;17.87;;;7.90;;
3443;SDS011;1736;52.068;6.968;2023-10-09T17:07:39;19.73;;;8.43;;
3443;SDS011;1736;52.068;6.968;2023-10-09T17:10:07;10.77;;;7.20;;